Time;durP1;ratioP1;P1;durP2;ratioP2;P2;SDS_P1;SDS_P2;PMS_P1;PMS_P2;Temp;Humidity;BMP_temperature;BMP_pressure;BME280_temperature;BME280_humidity;BME280_pressure;Samples;Min_cycle;Max_cycle;Signal;HPM_P1;HPM_P2
2021/12/22 00:01:02;;;;;;;16.90;10.40;;;1.70;77.80;;;2.14;55.09;99559.81;4895705;28;117305;-87
2021/12/22 00:04:08;;;;;;;18.27;10.57;;;1.70;77.70;;;2.17;55.29;99553.88;4882732;28;123537;-88
2021/12/22 00:06:54;;;;;;;15.90;9.60;;;1.70;77.80;;;2.16;55.36;99563.97;4886917;28;122399;-87
2021/12/22 00:09:42;;;;;;;15.40;9.33;;;1.70;77.90;;;2.17;55.02;99549.25;4893476;28;118758;-88
2021/12/22 00:12:10;;;;;;;17.03;9.40;;;1.70;77.90;;;2.15;55.25;99548.69;4896657;28;117897;-88
2021/12/22 00:14:37;;;;;;;15.90;8.90;;;1.70;77.90;;;2.17;55.27;99549.25;4895909;28;122191;-87
2021/12/22 00:17:22;;;;;;;13.53;10.00;;;1.80;78.00;;;2.20;55.34;99543.34;4879907;28;122931;-88
2021/12/22 00:19:52;;;;;;;16.00;10.60;;;1.80;78.20;;;2.12;55.86;99543.72;4878640;28;120091;-89
2021/12/22 00:22:21;;;;;;;16.70;9.00;;;1.70;78.20;;;2.11;55.58;99536.59;4896222;28;118772;-88
2021/12/22 00:25:43;;;;;;;14.60;9.40;;;1.70;78.10;;;2.14;55.59;99544.28;4879302;28;123839;-88
2021/12/22 00:28:32;;;;;;;13.70;10.00;;;0.80;77.50;;;2.11;55.85;99543.94;4861878;28;123426;-89
2021/12/22 00:31:09;;;;;;;15.53;9.80;;;1.70;78.40;;;2.08;55.79;99536.25;4866320;28;119038;-89
2021/12/22 00:33:46;;;;;;;15.10;9.10;;;1.70;78.40;;;2.09;56.08;99544.19;4895972;28;118961;-88
2021/12/22 00:36:16;;;;;;;13.90;8.93;;;1.60;78.40;;;2.10;55.72;99543.13;4881282;28;122652;-88
2021/12/22 00:38:45;;;;;;;12.80;8.40;;;1.60;78.50;;;2.10;55.76;99537.69;4877918;28;123032;-88
2021/12/22 00:41:13;;;;;;;19.23;9.63;;;1.70;78.60;;;2.11;55.91;99536.59;4881946;28;119492;-87
2021/12/22 00:43:43;;;;;;;14.53;8.90;;;1.70;79.30;;;2.14;55.86;99532.56;4873413;28;119061;-87
2021/12/22 00:46:16;;;;;;;13.17;8.80;;;1.70;78.60;;;2.16;55.37;99536.72;4890143;28;124152;-87
2021/12/22 00:48:45;;;;;;;19.50;9.90;;;1.70;78.60;;;2.16;55.42;99544.88;4871543;28;123958;-87
2021/12/22 00:51:12;;;;;;;14.87;9.70;;;1.70;78.60;;;2.14;55.62;99552.47;4891712;28;118852;-87
2021/12/22 00:53:58;;;;;;;13.97;9.43;;;2.80;79.50;;;2.17;55.72;99562.91;4883408;28;117871;-87
2021/12/22 00:56:27;;;;;;;15.87;8.37;;;1.70;78.70;;;2.11;55.62;99555.69;4894723;28;123828;-87
2021/12/22 00:58:53;;;;;;;12.23;8.60;;;2.30;79.20;;;2.10;55.53;99554.03;4874055;28;122064;-88
2021/12/22 01:01:21;;;;;;;17.90;10.33;;;1.70;79.20;;;2.09;55.50;99549.63;4873465;28;118517;-89
2021/12/22 01:04:07;;;;;;;17.53;9.30;;;2.70;79.50;;;2.12;55.76;99553.78;4870747;28;118024;-88
2021/12/22 01:06:36;;;;;;;14.70;9.53;;;1.60;78.40;;;2.08;55.35;99550.72;4862146;28;124215;-89
2021/12/22 01:09:23;;;;;;;18.17;8.80;;;1.60;78.40;;;2.11;55.11;99555.69;4869040;28;122820;-88
2021/12/22 01:12:11;;;;;;;13.57;9.80;;;1.60;78.30;;;2.09;55.27;99549.63;4849031;28;119771;-89
2021/12/22 01:14:59;;;;;;;16.57;9.17;;;1.60;78.20;;;2.06;55.08;99547.38;4857443;28;119283;-88
2021/12/22 01:18:31;;;;;;;14.43;8.83;;;1.60;78.10;;;2.06;55.05;99541.09;4845292;28;122057;-90
2021/12/22 01:25:21;;;;;;;12.67;8.40;;;1.50;77.80;;;1.93;54.93;99550.34;4876112;28;119058;-89
2021/12/22 01:27:48;;;;;;;12.40;8.87;;;1.50;77.80;;;1.88;55.01;99552.97;4860098;29;116535;-88
2021/12/22 01:30:34;;;;;;;13.67;8.70;;;1.50;77.80;;;1.92;54.67;99554.16;4843822;28;122126;-88
2021/12/22 01:33:03;;;;;;;16.57;9.37;;;1.50;77.80;;;1.90;55.03;99556.28;4848754;29;123055;-88
2021/12/22 01:39:33;;;;;;;10.93;8.00;;;1.50;77.80;;;1.91;54.87;99561.50;4868334;28;118505;-87
2021/12/22 01:49:13;;;;;;;15.70;8.90;;;1.40;77.40;;;1.85;54.93;99573.34;4861112;28;118990;-89
2021/12/22 01:51:54;;;;;;;12.13;8.33;;;1.40;77.30;;;1.80;55.10;99565.06;4873483;28;118566;-89
2021/12/22 01:58:11;;;;;;;16.33;9.00;;;1.40;77.20;;;1.77;54.98;99563.63;4880042;28;123734;-88
2021/12/22 02:01:17;;;;;;;10.77;8.33;;;1.40;77.20;;;1.76;54.40;99553.78;4870739;28;118740;-88
2021/12/22 02:04:10;;;;;;;11.50;8.17;;;1.40;77.10;;;1.75;54.54;99560.31;4872654;28;118137;-89
2021/12/22 02:07:14;;;;;;;16.60;8.03;;;1.30;77.00;;;1.74;54.91;99555.91;4888835;28;123287;-89
2021/12/22 02:12:50;;;;;;;13.00;9.10;;;1.30;76.90;;;1.69;54.58;99553.09;4904300;28;119616;-89
2021/12/22 02:15:17;;;;;;;11.20;8.37;;;1.30;77.00;;;1.66;54.42;99556.25;4898900;28;120078;-89
2021/12/22 02:17:48;;;;;;;13.77;8.87;;;1.30;77.00;;;1.68;54.54;99562.31;4874102;28;122877;-88
2021/12/22 02:20:15;;;;;;;14.17;9.63;;;1.30;77.10;;;1.69;54.66;99563.13;4901407;28;123075;-89
2021/12/22 02:22:45;;;;;;;9.80;7.77;;;1.30;77.30;;;1.70;54.58;99560.19;4886777;28;117607;-89
2021/12/22 02:25:32;;;;;;;16.10;9.53;;;1.20;77.30;;;1.73;54.84;99561.63;4886077;28;117790;-90
2021/12/22 02:28:02;;;;;;;12.40;9.10;;;1.20;77.40;;;1.72;55.05;99552.63;4896626;28;123955;-88
2021/12/22 02:30:39;;;;;;;15.10;9.70;;;1.30;77.50;;;1.77;54.71;99550.03;4880261;28;122819;-88
2021/12/22 02:33:19;;;;;;;16.23;9.00;;;1.30;77.50;;;1.74;54.64;99547.75;4866096;28;118605;-88
2021/12/22 02:39:04;;;;;;;14.80;9.80;;;2.30;78.40;;;1.76;54.64;99561.13;4882600;28;123464;-88
2021/12/22 02:41:36;;;;;;;13.53;8.87;;;1.30;77.50;;;1.66;55.00;99552.72;4894667;28;122870;-88
2021/12/22 02:44:08;;;;;;;13.00;9.00;;;1.20;77.40;;;1.64;54.85;99558.41;4870108;28;118536;-88
2021/12/22 02:46:40;;;;;;;18.40;10.50;;;1.20;77.40;;;1.63;55.17;99555.91;4888808;28;118731;-88
2021/12/22 02:49:11;;;;;;;19.10;11.47;;;1.20;77.50;;;1.59;54.61;99561.00;4898601;28;123172;-89
2021/12/22 02:51:40;;;;;;;16.30;10.87;;;1.20;77.70;;;1.46;54.92;99566.69;4873885;28;123467;-89
2021/12/22 02:57:16;;;;;;;18.77;11.17;;;2.60;79.30;;;1.35;54.98;99562.88;4901221;28;118160;-89
2021/12/22 03:03:02;;;;;;;18.63;10.27;;;2.00;79.20;;;1.24;56.00;99558.22;4857664;29;124855;-88
2021/12/22 03:06:12;;;;;;;25.90;12.07;;;0.80;78.20;;;1.12;55.89;99563.63;4858123;29;119805;-88
2021/12/22 03:09:38;;;;;;;20.03;10.10;;;0.70;78.60;;;1.02;55.63;99560.63;4902899;28;118366;-89
2021/12/22 03:12:14;;;;;;;16.93;10.90;;;0.00;77.90;;;0.91;56.33;99561.41;4893223;28;123636;-89
2021/12/22 03:15:19;;;;;;;19.17;11.10;;;0.50;78.80;;;0.90;56.12;99562.47;4871026;28;122728;-89
2021/12/22 03:18:06;;;;;;;15.20;9.80;;;0.50;78.90;;;0.87;56.82;99559.16;4882553;28;118668;-89
2021/12/22 03:24:18;;;;;;;19.37;11.87;;;0.40;79.20;;;0.73;56.56;99563.13;4897118;28;124562;-88
2021/12/22 03:26:46;;;;;;;19.20;10.30;;;0.30;79.30;;;0.69;57.04;99559.19;4910527;28;124505;-89
2021/12/22 03:29:18;;;;;;;17.70;9.73;;;0.30;79.20;;;0.72;56.28;99553.28;4892438;28;121305;-88
2021/12/22 03:31:47;;;;;;;18.47;11.30;;;0.30;79.20;;;0.74;57.23;99555.78;4892055;28;117167;-90
2021/12/22 03:34:17;;;;;;;19.00;11.47;;;0.30;79.20;;;0.76;56.82;99553.69;4882714;28;123619;-89
2021/12/22 03:36:45;;;;;;;27.30;13.60;;;0.30;79.30;;;0.74;56.85;99556.63;4905415;28;123361;-89
2021/12/22 03:39:15;;;;;;;18.17;11.70;;;0.30;79.50;;;0.73;56.50;99554.97;4902224;28;119071;-89
2021/12/22 03:42:01;;;;;;;15.53;11.33;;;0.30;79.60;;;0.75;57.01;99568.31;4870620;28;118153;-88
2021/12/22 03:44:46;;;;;;;22.07;12.30;;;0.30;79.60;;;0.73;57.01;99565.84;4857538;28;122023;-89
2021/12/22 03:47:14;;;;;;;19.20;11.73;;;0.30;79.90;;;0.59;57.08;99565.19;4868743;28;122252;-89
2021/12/22 03:50:04;;;;;;;18.27;10.80;;;0.20;79.90;;;0.63;56.81;99584.59;4900969;28;119440;-89
2021/12/22 03:52:32;;;;;;;17.73;11.47;;;0.20;79.90;;;0.57;56.99;99577.34;4892303;28;117776;-89
2021/12/22 03:55:00;;;;;;;20.60;12.27;;;0.10;79.90;;;0.54;57.52;99583.22;4903676;28;122467;-88
2021/12/22 03:57:28;;;;;;;22.00;12.93;;;0.20;80.00;;;0.52;57.76;99591.63;4900475;28;122894;-90
2021/12/22 04:00:15;;;;;;;23.93;13.03;;;0.10;80.10;;;0.53;56.93;99576.13;4868767;28;117785;-88
2021/12/22 04:02:43;;;;;;;22.17;11.90;;;0.10;80.20;;;0.46;57.29;99586.25;4885469;28;119508;-89
2021/12/22 04:05:11;;;;;;;16.03;10.57;;;0.00;80.20;;;0.43;57.52;99582.94;4891278;28;122401;-88
2021/12/22 04:07:37;;;;;;;20.43;12.23;;;0.00;80.20;;;0.43;56.90;99582.94;4904504;28;123465;-89
2021/12/22 04:10:19;;;;;;;20.40;11.93;;;0.00;80.20;;;0.46;57.79;99587.09;4897678;28;118915;-88
2021/12/22 04:12:48;;;;;;;19.63;11.90;;;0.00;80.30;;;0.48;57.06;99584.97;4886054;28;118883;-88
2021/12/22 04:15:34;;;;;;;19.10;11.80;;;0.00;80.40;;;0.51;57.86;99583.69;4875701;28;122616;-89
2021/12/22 04:18:03;;;;;;;20.30;12.77;;;0.00;80.40;;;0.50;57.57;99579.31;4877978;28;123455;-89
2021/12/22 04:24:11;;;;;;;22.57;12.77;;;0.00;80.40;;;0.37;57.49;99564.81;4892317;28;119220;-87
2021/12/22 04:27:35;;;;;;;21.10;11.97;;;0.00;80.40;;;0.39;57.95;99570.03;4904381;28;123566;-89
2021/12/22 04:30:22;;;;;;;18.93;13.23;;;-0.10;80.30;;;0.35;57.37;99564.22;4873895;28;122537;-89
2021/12/22 04:33:26;;;;;;;19.30;10.73;;;-0.10;80.50;;;0.37;57.08;99562.09;4890338;28;119437;-88
2021/12/22 04:36:13;;;;;;;16.23;10.93;;;-0.10;80.40;;;0.40;57.39;99560.81;4908127;28;118092;-88
2021/12/22 04:42:21;;;;;;;21.80;11.93;;;0.00;80.50;;;0.37;57.28;99558.53;4904788;28;124727;-89
2021/12/22 04:44:53;;;;;;;22.97;11.97;;;-0.10;80.50;;;0.38;57.97;99562.94;4894840;28;119195;-89
2021/12/22 04:47:21;;;;;;;20.27;11.50;;;-0.10;80.60;;;0.39;57.64;99559.16;4895327;28;117608;-89
2021/12/22 04:49:49;;;;;;;17.97;11.67;;;0.00;80.60;;;0.39;57.65;99554.53;4899903;28;124207;-89
2021/12/22 04:52:42;;;;;;;17.00;11.27;;;1.10;81.60;;;0.43;57.44;99547.59;4890047;28;123750;-89
2021/12/22 04:55:10;;;;;;;20.40;11.67;;;-0.10;80.50;;;0.41;57.23;99547.00;4886257;28;119971;-88
2021/12/22 04:57:37;;;;;;;18.93;11.60;;;0.00;80.60;;;0.40;57.88;99553.50;4899295;28;120687;-88
2021/12/22 05:00:07;;;;;;;21.80;12.27;;;0.00;80.60;;;0.40;57.39;99555.38;4911509;28;123668;-88
2021/12/22 05:07:14;;;;;;;19.67;12.23;;;-0.10;80.90;;;0.32;57.38;99545.63;4889767;28;119516;-88
2021/12/22 05:09:59;;;;;;;17.60;10.30;;;-0.20;80.60;;;0.30;57.98;99545.03;4888172;28;118459;-88
2021/12/22 05:12:46;;;;;;;18.10;10.60;;;-0.10;80.70;;;0.30;57.64;99541.50;4901820;28;123334;-88
2021/12/22 05:15:20;;;;;;;22.33;11.27;;;-0.10;80.70;;;0.30;58.40;99550.47;4870284;28;122104;-88
2021/12/22 05:20:23;;;;;;;15.73;10.90;;;1.20;81.90;;;0.41;57.36;99551.59;4885319;28;119162;-87
2021/12/22 05:22:51;;;;;;;19.00;10.00;;;0.10;80.90;;;0.42;57.82;99548.66;4873747;28;123638;-86
2021/12/22 05:25:20;;;;;;;15.83;11.73;;;0.00;80.80;;;0.48;57.09;99546.06;4905412;28;123382;-87
2021/12/22 05:27:48;;;;;;;17.20;11.30;;;0.00;80.70;;;0.47;57.28;99552.59;4889340;28;119495;-85
2021/12/22 05:30:17;;;;;;;16.37;11.30;;;0.00;80.60;;;0.46;57.82;99556.34;4876135;28;117907;-87
2021/12/22 05:32:46;;;;;;;18.83;11.43;;;0.00;81.30;;;0.47;57.19;99560.75;4892219;28;123470;-86
2021/12/22 05:35:31;;;;;;;18.40;11.50;;;0.00;80.60;;;0.51;57.17;99554.63;4867799;28;123032;-87
2021/12/22 05:38:01;;;;;;;19.57;12.70;;;0.00;80.60;;;0.47;57.23;99564.28;4883950;28;118634;-88
2021/12/22 05:40:47;;;;;;;18.87;11.00;;;0.00;80.70;;;0.51;57.46;99560.06;4901693;28;118482;-87
2021/12/22 05:46:57;;;;;;;16.50;10.83;;;0.00;80.80;;;0.45;57.26;99574.53;4898747;28;123979;-88
2021/12/22 05:49:23;;;;;;;22.50;12.33;;;0.00;80.60;;;0.44;57.62;99576.44;4865450;28;118564;-88
2021/12/22 05:52:48;;;;;;;20.83;12.23;;;0.00;80.60;;;0.47;57.08;99572.44;4898247;28;118776;-87
2021/12/22 05:55:33;;;;;;;14.77;10.67;;;0.00;80.60;;;0.42;57.03;99577.72;4894593;28;122464;-88
2021/12/22 05:58:02;;;;;;;18.60;9.90;;;0.00;80.60;;;0.40;57.42;99572.53;4892932;28;123080;-89
2021/12/22 06:00:29;;;;;;;19.00;10.07;;;0.00;80.60;;;0.42;57.30;99577.72;4878345;28;118570;-89
2021/12/22 06:03:52;;;;;;;17.30;10.40;;;0.00;80.60;;;0.49;57.29;99574.94;4890260;28;118454;-88
2021/12/22 06:06:21;;;;;;;18.77;11.13;;;0.00;80.60;;;0.43;57.65;99572.06;4892032;28;123113;-89
2021/12/22 06:09:28;;;;;;;15.57;10.67;;;0.00;80.60;;;0.48;56.89;99573.25;4892515;28;122624;-89
2021/12/22 06:11:54;;;;;;;16.23;11.33;;;0.00;80.60;;;0.42;57.26;99575.00;4887899;28;118594;-88
2021/12/22 06:14:21;;;;;;;19.57;11.57;;;0.00;80.50;;;0.42;57.30;99575.00;4881040;28;118180;-88
2021/12/22 06:20:31;;;;;;;22.50;12.93;;;0.00;80.60;;;0.40;57.36;99567.09;4899086;28;123959;-88
2021/12/22 06:23:36;;;;;;;17.93;11.37;;;0.00;80.60;;;0.40;57.66;99569.81;4886121;28;119132;-88
2021/12/22 06:26:03;;;;;;;14.37;9.87;;;-0.10;80.50;;;0.37;57.79;99570.25;4887142;28;118421;-89
2021/12/22 06:32:11;;;;;;;16.60;10.27;;;-0.10;80.50;;;0.40;56.96;99571.69;4896874;28;123640;-87
2021/12/22 06:34:56;;;;;;;20.70;12.07;;;0.00;80.50;;;0.43;57.34;99560.34;4877008;28;118418;-88
2021/12/22 06:41:04;;;;;;;19.43;10.67;;;-0.10;80.40;;;0.29;57.39;99570.53;4897879;28;125279;-89
2021/12/22 06:43:33;;;;;;;16.40;10.70;;;-0.10;80.40;;;0.30;57.06;99572.22;4880838;28;123695;-88
2021/12/22 06:46:19;;;;;;;17.63;11.00;;;-0.10;80.50;;;0.35;57.22;99568.81;4871940;28;119406;-88
2021/12/22 06:49:25;;;;;;;19.53;13.33;;;-0.10;80.50;;;0.33;57.15;99565.50;4867992;28;117986;-88
2021/12/22 06:51:54;;;;;;;20.50;11.10;;;-0.10;80.50;;;0.25;56.92;99571.25;4895968;28;123551;-88
2021/12/22 06:54:20;;;;;;;17.43;11.10;;;-0.20;80.30;;;0.22;56.95;99569.81;4878161;28;122923;-88
2021/12/22 06:56:48;;;;;;;18.10;11.93;;;-0.20;80.30;;;0.22;56.90;99575.25;4887755;28;118215;-89
2021/12/22 06:59:15;;;;;;;19.73;11.80;;;-0.20;80.40;;;0.25;57.58;99576.69;4864370;28;118000;-88
2021/12/22 07:01:42;;;;;;;18.00;10.60;;;-0.20;80.40;;;0.27;57.45;99583.56;4869943;28;122273;-88
2021/12/22 07:04:09;;;;;;;22.60;11.80;;;-0.20;80.40;;;0.30;57.26;99577.66;4866432;28;122821;-89
2021/12/22 07:06:38;;;;;;;19.90;11.40;;;-0.10;80.60;;;0.32;56.86;99575.53;4855229;28;118698;-88
2021/12/22 07:09:07;;;;;;;16.53;11.20;;;-0.20;80.40;;;0.35;57.70;99575.09;4857189;28;117012;-89
2021/12/22 07:11:35;;;;;;;16.90;10.73;;;-0.20;80.40;;;0.37;57.63;99581.13;4857308;28;122557;-88
2021/12/22 07:14:04;;;;;;;21.47;11.70;;;0.00;80.50;;;0.38;57.47;99573.81;4843348;28;123301;-88
2021/12/22 07:16:30;;;;;;;16.03;10.30;;;-0.10;80.70;;;0.39;57.65;99570.84;4860620;28;118524;-88
2021/12/22 07:18:57;;;;;;;17.07;10.30;;;-0.10;80.70;;;0.43;57.71;99561.19;4876651;28;118205;-88
2021/12/22 07:21:26;;;;;;;17.40;10.50;;;-0.10;80.80;;;0.49;57.15;99564.91;4872397;28;123518;-88
2021/12/22 07:23:52;;;;;;;15.77;10.63;;;0.00;80.80;;;0.53;57.17;99570.69;4874841;28;122940;-88
2021/12/22 07:26:19;;;;;;;19.60;11.83;;;0.00;80.90;;;0.58;56.84;99565.41;4848070;28;118587;-88
2021/12/22 07:28:48;;;;;;;20.50;10.93;;;0.00;80.90;;;0.57;57.54;99574.63;4859348;28;118458;-88
2021/12/22 07:31:16;;;;;;;19.77;12.53;;;0.00;80.90;;;0.59;56.88;99586.94;4872019;28;123845;-88
2021/12/22 07:33:52;;;;;;;19.07;11.53;;;0.10;81.00;;;0.64;56.90;99592.50;4862989;28;123056;-89
2021/12/22 07:36:20;;;;;;;20.37;12.10;;;0.10;81.00;;;0.65;57.30;99596.91;4848680;29;119179;-88
2021/12/22 07:38:58;;;;;;;19.80;10.90;;;0.10;81.00;;;0.72;57.15;99591.34;4862658;28;119157;-87
2021/12/22 07:41:26;;;;;;;20.37;11.20;;;0.10;80.90;;;0.72;56.76;99598.69;4862472;28;124489;-87
2021/12/22 07:43:53;;;;;;;18.03;11.23;;;0.20;80.90;;;0.73;56.96;99603.09;4849745;28;121687;-87
2021/12/22 07:46:21;;;;;;;17.40;10.90;;;0.20;80.90;;;0.76;56.61;99608.06;4870266;28;118327;-88
2021/12/22 07:48:48;;;;;;;29.90;12.43;;;0.20;80.80;;;0.76;56.45;99613.50;4871992;28;118394;-87
2021/12/22 07:51:15;;;;;;;21.53;12.23;;;0.20;80.50;;;0.71;56.97;99618.81;4847530;28;123782;-88
2021/12/22 07:53:41;;;;;;;19.93;11.83;;;0.20;80.40;;;0.68;56.90;99620.09;4838317;28;122581;-87
2021/12/22 07:56:09;;;;;;;16.67;11.53;;;0.20;80.40;;;0.67;56.70;99615.69;4873839;28;118463;-87
2021/12/22 07:58:35;;;;;;;25.50;13.73;;;0.20;80.20;;;0.63;56.44;99622.66;4856563;28;117364;-88
2021/12/22 08:01:04;;;;;;;20.43;12.03;;;0.10;80.00;;;0.61;56.43;99612.00;4858317;28;122871;-87
2021/12/22 08:03:30;;;;;;;23.50;11.83;;;0.10;80.10;;;0.60;56.28;99609.53;4867384;28;122645;-88
2021/12/22 08:05:57;;;;;;;29.47;13.43;;;0.10;80.10;;;0.59;56.70;99607.84;4879097;28;118250;-88
2021/12/22 08:08:24;;;;;;;23.80;13.30;;;0.10;80.10;;;0.56;56.21;99620.00;4873427;28;119375;-88
2021/12/22 08:10:52;;;;;;;24.57;12.53;;;0.10;80.00;;;0.52;56.41;99615.25;4876084;28;123761;-88
2021/12/22 08:13:19;;;;;;;27.53;14.30;;;0.00;79.90;;;0.52;57.04;99615.25;4888997;28;123735;-88
2021/12/22 08:15:45;;;;;;;26.17;12.60;;;0.00;80.00;;;0.52;56.62;99621.53;4893126;28;118460;-87
2021/12/22 08:18:12;;;;;;;23.57;11.70;;;0.00;80.00;;;0.54;56.86;99621.28;4888189;28;118087;-87
2021/12/22 08:20:41;;;;;;;17.80;11.57;;;0.00;80.10;;;0.58;57.16;99617.88;4891924;28;124292;-88
2021/12/22 08:23:07;;;;;;;23.67;13.67;;;0.10;80.20;;;0.61;57.08;99609.28;4892622;28;123544;-88
2021/12/22 08:25:34;;;;;;;21.77;12.37;;;0.10;80.10;;;0.65;56.30;99606.94;4873361;28;119302;-87
2021/12/22 08:28:02;;;;;;;19.00;12.00;;;0.10;80.10;;;0.69;56.83;99613.56;4883271;28;119238;-88
2021/12/22 08:30:30;;;;;;;28.37;14.93;;;0.20;80.20;;;0.74;56.58;99616.44;4871462;28;121858;-88
2021/12/22 08:33:22;;;;;;;23.97;13.00;;;0.20;80.10;;;0.78;56.85;99614.09;4883424;28;123932;-88
2021/12/22 08:39:30;;;;;;;23.67;12.90;;;0.20;80.00;;;0.66;56.54;99612.16;4885836;28;118888;-88
2021/12/22 08:41:57;;;;;;;20.90;11.80;;;0.20;79.90;;;0.66;56.48;99606.69;4873084;28;123690;-89
2021/12/22 08:44:25;;;;;;;30.53;13.70;;;0.20;80.00;;;0.70;56.92;99596.22;4888139;28;121960;-88
2021/12/22 08:46:52;;;;;;;22.93;13.73;;;0.20;80.00;;;0.73;56.94;99603.91;4884875;28;118347;-88
2021/12/22 08:49:21;;;;;;;25.00;13.30;;;0.20;79.90;;;0.73;56.00;99603.91;4889365;28;118219;-88
2021/12/22 08:51:49;;;;;;;21.57;12.17;;;0.30;80.00;;;0.76;56.18;99608.91;4872423;28;123182;-88
2021/12/22 08:54:18;;;;;;;28.77;14.13;;;0.20;79.90;;;0.81;56.62;99605.50;4877711;28;123780;-87
2021/12/22 08:56:46;;;;;;;23.70;14.17;;;0.30;80.10;;;0.84;56.71;99594.97;4900135;28;118619;-88
2021/12/22 08:59:15;;;;;;;23.30;13.40;;;0.30;80.00;;;0.86;56.01;99597.47;4881349;28;119051;-87
2021/12/22 09:01:42;;;;;;;22.23;13.47;;;0.30;80.00;;;0.88;56.34;99589.91;4902533;28;124292;-89
2021/12/22 09:04:11;;;;;;;20.13;13.07;;;1.00;80.50;;;0.92;56.28;99593.00;4873639;28;122870;-88
2021/12/22 09:06:56;;;;;;;25.50;15.37;;;0.50;80.00;;;0.98;56.39;99594.81;4883066;28;118879;-89
2021/12/22 09:09:25;;;;;;;20.90;12.97;;;0.40;79.80;;;0.96;56.41;99580.59;4899218;28;118699;-89
2021/12/22 09:11:51;;;;;;;25.40;14.77;;;0.40;79.80;;;0.98;56.48;99584.75;4881798;28;124201;-89
2021/12/22 09:14:21;;;;;;;21.20;13.87;;;0.70;80.60;;;1.02;56.06;99591.41;4898536;28;124359;-87
2021/12/22 09:16:49;;;;;;;20.70;13.90;;;0.50;79.70;;;1.07;56.61;99587.97;4883830;28;119678;-87
2021/12/22 09:19:16;;;;;;;20.60;13.40;;;0.50;79.70;;;1.10;55.98;99587.50;4891195;28;119627;-86
2021/12/22 09:21:45;;;;;;;22.00;13.23;;;0.50;79.60;;;1.12;55.75;99588.09;4888949;28;124203;-87
2021/12/22 09:24:13;;;;;;;22.17;13.17;;;0.60;79.60;;;1.16;56.34;99580.34;4892019;28;123396;-87
2021/12/22 09:26:41;;;;;;;19.73;13.00;;;0.90;79.90;;;1.21;56.18;99586.75;4884059;28;119364;-88
2021/12/22 09:29:09;;;;;;;24.27;12.97;;;0.70;79.80;;;1.27;56.14;99583.06;4886805;28;119195;-88
2021/12/22 09:31:36;;;;;;;23.73;13.13;;;0.70;79.60;;;1.33;55.54;99584.03;4887701;28;123957;-87
2021/12/22 09:34:06;;;;;;;17.70;11.83;;;0.80;79.70;;;1.40;55.40;99581.19;4875339;28;122765;-87
2021/12/22 09:37:12;;;;;;;20.37;13.17;;;0.80;79.60;;;1.47;55.13;99584.66;4867836;28;118682;-88
2021/12/22 09:40:01;;;;;;;18.53;11.70;;;0.90;79.50;;;1.49;55.67;99582.53;4890921;28;118326;-85
2021/12/22 09:43:06;;;;;;;21.67;11.63;;;0.90;79.30;;;1.52;55.44;99573.91;4889070;28;123204;-87
2021/12/22 09:45:37;;;;;;;26.07;12.13;;;0.90;79.00;;;1.53;54.99;99570.09;4874946;28;122818;-87
2021/12/22 09:53:46;;;;;;;18.60;12.03;;;1.10;78.90;;;1.76;54.71;99558.41;4853781;28;123064;-87
2021/12/22 09:56:20;;;;;;;20.73;12.70;;;1.20;78.90;;;1.82;54.61;99552.00;4891037;28;123810;-88
2021/12/22 09:58:48;;;;;;;17.67;11.70;;;1.20;78.70;;;1.85;54.34;99551.53;4873260;28;119026;-88
2021/12/22 10:01:22;;;;;;;16.27;10.37;;;1.60;78.80;;;1.90;54.55;99554.38;4894195;28;119111;-88
2021/12/22 10:03:54;;;;;;;19.10;12.67;;;1.30;78.50;;;2.03;55.85;99563.41;4869668;28;123965;-88
2021/12/22 10:06:58;;;;;;;19.10;11.80;;;1.40;80.20;;;2.13;54.53;99561.72;4894243;28;123522;-89
2021/12/22 10:10:26;;;;;;;16.13;10.20;;;1.50;79.00;;;2.16;54.46;99557.69;4874586;28;120201;-88
2021/12/22 10:13:06;;;;;;;16.37;11.83;;;1.60;78.50;;;2.15;53.75;99556.88;4889939;28;119977;-89
2021/12/22 10:16:28;;;;;;;19.73;12.10;;;2.30;78.70;;;2.19;53.79;99547.13;4893250;28;122102;-87
2021/12/22 10:19:16;;;;;;;16.87;11.47;;;1.60;77.80;;;2.30;53.99;99553.63;4880615;28;122218;-88
2021/12/22 10:22:39;;;;;;;18.10;12.40;;;1.70;77.90;;;2.41;54.01;99544.59;4877871;28;118338;-88
2021/12/22 10:25:28;;;;;;;17.73;11.00;;;1.80;77.80;;;2.51;53.25;99524.91;4880882;28;117811;-86
2021/12/22 10:28:18;;;;;;;18.03;11.80;;;1.90;77.50;;;2.60;53.00;99533.53;4886651;28;123009;-88
2021/12/22 10:30:47;;;;;;;20.33;12.47;;;2.00;77.30;;;2.65;52.90;99529.00;4894805;28;123467;-87
2021/12/22 10:33:25;;;;;;;14.40;10.73;;;2.10;77.00;;;2.74;53.02;99526.72;4880042;28;118344;-86
2021/12/22 10:36:03;;;;;;;13.03;10.17;;;2.10;77.00;;;2.83;52.84;99516.25;4881419;28;119080;-86
2021/12/22 10:38:32;;;;;;;15.90;10.53;;;2.20;77.10;;;2.88;52.69;99517.16;4888799;28;123722;-88
2021/12/22 10:44:45;;;;;;;18.10;10.70;;;2.40;76.20;;;2.96;52.08;99510.50;4889220;28;119152;-88
2021/12/22 10:49:14;;;;;;;18.00;11.80;;;2.40;75.60;;;3.02;51.60;99509.50;4896060;28;118326;-87
2021/12/22 10:50:24;;;;;;;18.93;11.47;;;2.50;75.30;;;3.07;51.54;99504.13;4877438;28;123972;-87
2021/12/22 10:53:12;;;;;;;18.40;11.90;;;2.50;75.40;;;3.17;51.30;99491.72;4879387;28;124307;-88
2021/12/22 10:55:43;;;;;;;17.10;12.20;;;2.60;74.90;;;3.26;51.22;99487.53;4866168;28;118143;-88
2021/12/22 10:58:47;;;;;;;18.07;12.20;;;2.60;74.70;;;3.43;50.31;99487.53;4877642;28;118029;-88
2021/12/22 11:01:37;;;;;;;17.00;11.70;;;2.80;74.50;;;3.57;50.80;99479.81;4869542;28;122612;-88
2021/12/22 11:04:17;;;;;;;13.83;9.93;;;2.90;74.90;;;3.69;50.59;99480.56;4853675;28;124064;-88
2021/12/22 11:10:30;;;;;;;16.47;10.57;;;3.20;75.00;;;4.09;49.97;99460.34;4869468;28;119737;-88
2021/12/22 11:13:05;;;;;;;16.67;9.93;;;3.30;74.90;;;4.26;50.03;99460.28;4858520;28;122324;-87
2021/12/22 11:16:12;;;;;;;18.40;12.60;;;3.50;74.70;;;4.43;49.19;99448.19;4840339;28;124344;-86
2021/12/22 11:19:17;;;;;;;20.57;10.60;;;3.60;73.00;;;4.58;49.48;99447.50;4856149;28;119228;-90
2021/12/22 11:22:08;;;;;;;15.80;10.07;;;3.80;74.00;;;4.78;48.91;99446.91;4853484;28;118047;-86
2021/12/22 11:24:55;;;;;;;15.83;9.40;;;3.90;73.80;;;4.93;49.13;99438.00;4871842;28;124804;-87
2021/12/22 11:27:26;;;;;;;17.67;11.00;;;4.10;73.90;;;5.07;48.68;99432.91;4854532;28;123013;-88
2021/12/22 11:29:57;;;;;;;15.80;9.43;;;4.30;73.60;;;5.25;48.85;99435.28;4874732;28;120015;-87
2021/12/22 11:32:29;;;;;;;13.90;9.20;;;4.40;73.40;;;5.46;48.76;99435.44;4867796;28;118056;-87
2021/12/22 11:35:01;;;;;;;16.47;10.30;;;4.60;73.50;;;5.64;48.55;99431.44;4837662;28;123191;-87
2021/12/22 11:37:29;;;;;;;13.87;9.13;;;4.80;73.10;;;5.74;47.88;99437.78;4846104;28;121986;-86
2021/12/22 11:40:00;;;;;;;15.07;10.43;;;4.90;72.70;;;5.84;47.95;99428.81;4853901;28;118986;-88
2021/12/22 11:42:45;;;;;;;14.37;9.87;;;5.10;72.40;;;5.97;47.72;99431.13;4851344;28;118092;-87
2021/12/22 11:45:21;;;;;;;17.53;11.33;;;5.20;72.10;;;6.12;47.51;99426.78;4868070;28;124654;-88
2021/12/22 11:47:53;;;;;;;14.57;10.43;;;5.30;71.90;;;6.29;47.28;99426.59;4852746;28;123223;-89
2021/12/22 11:50:48;;;;;;;12.73;9.73;;;5.50;71.80;;;6.43;46.71;99430.47;4852651;28;119275;-87
2021/12/22 11:53:16;;;;;;;17.33;10.00;;;5.70;71.30;;;6.54;46.79;99418.44;4868398;28;118189;-88
2021/12/22 11:55:46;;;;;;;13.87;9.70;;;5.80;71.00;;;6.64;46.57;99418.44;4867826;28;124549;-87
2021/12/22 11:58:18;;;;;;;11.83;7.93;;;5.90;70.80;;;6.79;46.10;99420.38;4853103;28;121976;-87
2021/12/22 12:00:54;;;;;;;12.30;8.80;;;6.10;70.90;;;6.97;46.47;99413.56;4871238;28;119502;-87
2021/12/22 12:03:31;;;;;;;15.10;10.33;;;6.60;71.00;;;7.15;46.01;99405.88;4886651;28;120140;-87
2021/12/22 12:06:15;;;;;;;13.40;9.93;;;6.40;70.50;;;7.39;45.89;99406.13;4866736;28;123881;-88
2021/12/22 12:09:09;;;;;;;11.57;8.63;;;6.60;70.20;;;7.57;45.56;99389.03;4887077;28;123622;-87
2021/12/22 12:11:41;;;;;;;15.27;10.07;;;6.80;69.60;;;7.75;44.52;99390.38;4891057;28;120489;-88
2021/12/22 12:23:31;;;;;;;11.97;8.67;;;7.60;67.30;;;8.52;43.22;99368.88;4886750;28;120027;-87